createdAt,value
2019-02-08T00:01:12.200Z,28.60
2019-02-08T00:03:44.443Z,31.82
2019-02-08T00:06:18.891Z,30.92
2019-02-08T00:08:53.273Z,30.65
2019-02-08T00:11:27.900Z,27.52
2019-02-08T00:13:59.915Z,30.17
2019-02-08T00:16:34.343Z,29.12
2019-02-08T00:19:09.702Z,27.30
2019-02-08T00:21:43.657Z,26.95
2019-02-08T00:24:15.488Z,23.30
2019-02-08T00:26:47.320Z,28.10
2019-02-08T00:29:26.868Z,24.77
2019-02-08T00:31:58.752Z,23.83
2019-02-08T00:34:30.606Z,21.95
2019-02-08T00:37:02.421Z,22.98
2019-02-08T00:39:34.637Z,22.15
2019-02-08T00:42:09.670Z,24.35
2019-02-08T00:44:41.540Z,21.30
2019-02-08T00:47:16.423Z,25.70
2019-02-08T00:49:51.289Z,24.35
2019-02-08T00:52:23.122Z,26.70
2019-02-08T00:54:59.855Z,29.50
2019-02-08T00:57:34.013Z,23.98
2019-02-08T01:00:09.351Z,15.95
2019-02-08T01:02:42.190Z,21.15
2019-02-08T01:05:18.084Z,15.63
2019-02-08T01:07:50.501Z,12.05
2019-02-08T01:10:29.629Z,15.15
2019-02-08T01:13:02.290Z,18.05
2019-02-08T01:15:34.655Z,17.87
2019-02-08T01:18:13.875Z,17.80
2019-02-08T01:20:45.743Z,19.20
2019-02-08T01:23:18.952Z,19.73
2019-02-08T01:25:50.849Z,20.20
2019-02-08T01:28:24.313Z,17.62
2019-02-08T01:30:56.170Z,10.72
2019-02-08T01:33:28.066Z,13.00
2019-02-08T01:35:59.834Z,11.53
2019-02-08T01:38:34.440Z,13.58
2019-02-08T01:41:06.443Z,12.68
2019-02-08T01:43:38.331Z,11.90
2019-02-08T01:46:14.889Z,8.70
2019-02-08T01:48:46.738Z,11.30
2019-02-08T01:51:21.825Z,10.58
2019-02-08T01:53:53.670Z,10.75
2019-02-08T01:56:34.542Z,10.63
2019-02-08T01:59:06.574Z,11.43
2019-02-08T02:01:38.269Z,10.97
2019-02-08T02:04:14.259Z,7.05
2019-02-08T02:06:46.087Z,8.00
2019-02-08T02:09:18.030Z,7.08
2019-02-08T02:11:51.602Z,12.40
2019-02-08T02:14:23.135Z,7.83
2019-02-08T02:16:59.734Z,8.53
2019-02-08T02:19:33.395Z,9.58
2019-02-08T02:22:05.438Z,12.30
2019-02-08T02:24:37.410Z,10.68
2019-02-08T02:27:09.234Z,6.75
2019-02-08T02:29:44.525Z,9.98
2019-02-08T02:32:19.303Z,8.40
2019-02-08T02:34:51.895Z,11.40
2019-02-08T02:37:26.492Z,9.28
2019-02-08T02:39:58.508Z,6.28
2019-02-08T02:42:30.350Z,9.30
2019-02-08T02:45:02.195Z,8.28
2019-02-08T02:47:34.015Z,9.68
2019-02-08T02:50:08.489Z,9.18
2019-02-08T02:52:41.827Z,14.95
2019-02-08T02:55:16.371Z,11.60
2019-02-08T02:57:49.519Z,11.08
2019-02-08T03:00:26.911Z,11.97
2019-02-08T03:02:59.264Z,14.65
2019-02-08T03:05:34.010Z,14.13
2019-02-08T03:08:07.601Z,13.77
2019-02-08T03:10:39.654Z,13.72
2019-02-08T03:13:14.046Z,13.32
2019-02-08T03:15:48.648Z,13.05
2019-02-08T03:18:20.502Z,14.18
2019-02-08T03:20:52.384Z,17.15
2019-02-08T03:23:24.270Z,13.88
2019-02-08T03:25:56.110Z,16.23
2019-02-08T03:28:28.000Z,13.15
2019-02-08T03:30:59.943Z,12.80
2019-02-08T03:33:32.642Z,12.73
2019-02-08T03:36:04.478Z,10.35
2019-02-08T03:38:36.312Z,14.30
2019-02-08T03:41:08.234Z,11.40
2019-02-08T03:43:40.041Z,12.55
2019-02-08T03:46:13.804Z,13.90
2019-02-08T03:48:45.638Z,13.48
2019-02-08T03:51:20.177Z,14.03
2019-02-08T03:53:52.003Z,10.50
2019-02-08T03:56:26.353Z,15.72
2019-02-08T03:58:58.155Z,11.12
2019-02-08T04:01:29.745Z,13.10
2019-02-08T04:04:17.605Z,14.37
2019-02-08T04:06:49.141Z,14.37
2019-02-08T04:09:20.725Z,13.90
2019-02-08T04:11:54.986Z,14.80
2019-02-08T04:14:26.829Z,19.05
2019-02-08T04:16:58.684Z,13.80
2019-02-08T04:19:30.482Z,13.95
2019-02-08T04:22:03.518Z,14.70
2019-02-08T04:24:35.338Z,15.98
2019-02-08T04:27:09.265Z,17.77
2019-02-08T04:29:41.097Z,14.95
2019-02-08T04:32:12.950Z,15.78
2019-02-08T04:34:44.814Z,18.32
2019-02-08T04:37:16.532Z,15.00
2019-02-08T04:39:48.504Z,14.65
2019-02-08T04:42:23.445Z,13.55
2019-02-08T04:44:55.199Z,18.13
2019-02-08T04:47:27.055Z,16.65
2019-02-08T04:49:58.917Z,15.23
2019-02-08T04:52:30.816Z,17.00
2019-02-08T04:55:05.205Z,11.20
2019-02-08T04:57:37.032Z,11.78
2019-02-08T05:00:28.530Z,18.67
2019-02-08T05:03:00.478Z,43.38
2019-02-08T05:05:34.828Z,61.83
2019-02-08T05:08:07.017Z,51.58
2019-02-08T05:10:38.564Z,64.20
2019-02-08T05:13:10.482Z,60.67
2019-02-08T05:15:42.055Z,36.83
2019-02-08T05:18:13.594Z,29.67
2019-02-08T05:20:45.149Z,19.53
2019-02-08T05:23:16.670Z,14.23
2019-02-08T05:25:48.205Z,12.33
2019-02-08T05:28:19.753Z,9.83
2019-02-08T05:30:51.298Z,11.77
2019-02-08T05:33:23.111Z,13.75
2019-02-08T05:35:55.009Z,13.75
2019-02-08T05:38:26.818Z,11.93
2019-02-08T05:40:58.665Z,11.25
2019-02-08T05:43:30.471Z,8.58
2019-02-08T05:46:03.675Z,10.37
2019-02-08T05:48:35.496Z,11.55
2019-02-08T05:51:07.405Z,12.37
2019-02-08T05:53:39.218Z,17.02
2019-02-08T05:56:11.041Z,10.70
2019-02-08T05:58:44.231Z,9.50
2019-02-08T06:01:16.060Z,8.80
2019-02-08T06:03:47.886Z,9.53
2019-02-08T06:06:19.708Z,8.23
2019-02-08T06:08:51.339Z,15.33
2019-02-08T06:11:22.898Z,5.87
2019-02-08T06:13:54.747Z,8.75
2019-02-08T06:16:26.554Z,6.80
2019-02-08T06:19:00.013Z,7.83
2019-02-08T06:21:31.805Z,7.00
2019-02-08T06:24:03.384Z,5.93
2019-02-08T06:26:35.029Z,7.13
2019-02-08T06:29:07.240Z,10.27
2019-02-08T06:31:39.043Z,8.20
2019-02-08T06:34:13.688Z,7.85
2019-02-08T06:36:45.628Z,8.30
2019-02-08T06:39:17.162Z,8.17
2019-02-08T06:41:50.654Z,22.87
2019-02-08T06:44:22.473Z,12.05
2019-02-08T06:46:55.549Z,6.25
2019-02-08T06:49:27.404Z,12.18
2019-02-08T06:51:58.940Z,13.47
2019-02-08T06:54:30.784Z,8.95
2019-02-08T06:57:20.011Z,6.87
2019-02-08T07:00:09.252Z,10.97
2019-02-08T07:02:51.894Z,8.70
2019-02-08T07:05:42.310Z,9.37
2019-02-08T07:08:20.693Z,26.12
2019-02-08T07:11:04.346Z,24.72
2019-02-08T07:13:53.791Z,15.30
2019-02-08T07:16:49.829Z,11.97
2019-02-08T07:19:46.048Z,13.13
2019-02-08T07:22:45.720Z,12.63
2019-02-08T07:25:23.646Z,12.17
2019-02-08T07:28:11.364Z,9.20
2019-02-08T07:31:01.175Z,7.93
2019-02-08T07:33:42.499Z,11.88
2019-02-08T07:36:25.097Z,8.50
2019-02-08T07:39:09.148Z,8.63
2019-02-08T07:42:02.791Z,8.80
2019-02-08T07:45:02.165Z,10.77
2019-02-08T07:47:54.053Z,11.80
2019-02-08T07:50:36.936Z,8.80
2019-02-08T07:53:26.289Z,8.90
2019-02-08T07:56:20.886Z,7.97
2019-02-08T07:59:04.026Z,8.73
2019-02-08T08:01:57.348Z,8.47
2019-02-08T08:05:07.298Z,7.70
2019-02-08T08:08:03.918Z,8.13
2019-02-08T08:10:56.932Z,9.77
2019-02-08T08:13:53.699Z,9.20
2019-02-08T08:16:49.436Z,8.97
2019-02-08T08:19:41.161Z,10.83
2019-02-08T08:22:21.031Z,10.63
2019-02-08T08:25:17.934Z,9.40
2019-02-08T08:28:21.065Z,9.73
2019-02-08T08:31:19.111Z,6.33
2019-02-08T08:34:21.652Z,12.60
2019-02-08T08:38:07.628Z,7.10
2019-02-08T08:41:44.828Z,12.50
2019-02-08T08:45:24.019Z,9.77
2019-02-08T08:49:12.032Z,8.30
2019-02-08T08:52:34.972Z,9.00
2019-02-08T08:56:04.441Z,5.53
2019-02-08T08:59:15.358Z,8.70
2019-02-08T09:03:00.245Z,6.33
2019-02-08T09:06:12.518Z,11.03
2019-02-08T09:09:45.309Z,6.33
2019-02-08T09:13:24.748Z,9.90
2019-02-08T09:16:50.789Z,6.40
2019-02-08T09:20:14.049Z,13.07
2019-02-08T09:23:24.475Z,7.53
2019-02-08T09:26:41.630Z,6.70
2019-02-08T09:30:40.994Z,6.93
2019-02-08T09:34:26.194Z,9.90
2019-02-08T09:38:16.168Z,8.53
2019-02-08T09:41:48.732Z,8.80
2019-02-08T09:45:25.114Z,9.23
2019-02-08T09:48:40.423Z,5.83
2019-02-08T09:52:33.367Z,5.23
2019-02-08T09:56:16.577Z,8.43
2019-02-08T09:59:41.679Z,7.57
2019-02-08T10:02:57.385Z,5.90
2019-02-08T10:06:22.461Z,6.57
2019-02-08T10:09:40.783Z,3.97
2019-02-08T10:13:07.529Z,4.80
2019-02-08T10:16:31.641Z,5.23
2019-02-08T10:20:05.592Z,5.53
2019-02-08T10:23:31.286Z,6.67
2019-02-08T10:27:26.681Z,5.00
2019-02-08T10:30:53.897Z,7.73
2019-02-08T10:34:50.630Z,5.40
2019-02-08T10:38:24.140Z,4.27
2019-02-08T10:42:14.518Z,5.10
2019-02-08T10:45:50.051Z,5.37
2019-02-08T10:49:11.248Z,7.50
2019-02-08T10:52:46.807Z,4.73
2019-02-08T10:56:26.222Z,7.50
2019-02-08T11:00:35.296Z,5.90
2019-02-08T11:04:01.216Z,8.20
2019-02-08T11:07:28.331Z,5.00
2019-02-08T11:11:05.191Z,4.90
2019-02-08T11:14:14.593Z,4.83
2019-02-08T11:17:42.525Z,6.20
2019-02-08T11:20:14.125Z,7.83
2019-02-08T11:22:45.700Z,8.07
2019-02-08T11:25:19.840Z,5.80
2019-02-08T11:27:51.383Z,4.37
2019-02-08T11:30:23.005Z,5.03
2019-02-08T11:32:54.681Z,6.20
2019-02-08T11:35:26.255Z,6.13
2019-02-08T11:37:59.829Z,4.87
2019-02-08T11:40:31.712Z,6.07
2019-02-08T11:43:03.276Z,6.33
2019-02-08T11:45:36.903Z,6.90
2019-02-08T11:48:08.758Z,4.10
2019-02-08T11:50:40.335Z,4.33
2019-02-08T11:53:11.856Z,5.40
2019-02-08T11:55:43.426Z,3.47
2019-02-08T11:58:16.410Z,5.50
2019-02-08T12:00:51.758Z,4.40
2019-02-08T12:03:23.354Z,4.90
2019-02-08T12:05:54.957Z,4.43
2019-02-08T12:08:30.090Z,6.20
2019-02-08T12:11:01.811Z,4.13
2019-02-08T12:13:33.353Z,7.00
2019-02-08T12:16:05.089Z,3.70
2019-02-08T12:18:36.679Z,5.43
2019-02-08T12:21:08.263Z,2.83
2019-02-08T12:23:41.604Z,4.20
2019-02-08T12:26:18.070Z,6.53
2019-02-08T12:28:49.646Z,3.20
2019-02-08T12:31:21.200Z,6.57
2019-02-08T12:33:52.828Z,5.33
2019-02-08T12:36:24.494Z,7.13
2019-02-08T12:38:56.079Z,4.10
2019-02-08T12:41:27.620Z,4.23
2019-02-08T12:43:59.218Z,4.57
2019-02-08T12:46:30.892Z,3.50
2019-02-08T12:49:02.460Z,4.43
2019-02-08T12:51:34.452Z,3.40
2019-02-08T12:54:06.886Z,7.10
2019-02-08T12:56:45.337Z,5.83
2019-02-08T12:59:13.208Z,7.83
2019-02-08T13:01:44.860Z,4.67
2019-02-08T13:04:16.436Z,4.37
2019-02-08T13:06:47.997Z,5.30
2019-02-08T13:09:19.558Z,4.90
2019-02-08T13:11:51.602Z,5.28
2019-02-08T13:14:23.253Z,4.10
2019-02-08T13:16:54.809Z,5.50
2019-02-08T13:19:26.421Z,3.93
2019-02-08T13:21:57.951Z,7.53
2019-02-08T13:24:29.541Z,13.33
2019-02-08T13:27:02.079Z,7.93
2019-02-08T13:29:33.670Z,2.97
2019-02-08T13:32:05.467Z,5.10
2019-02-08T13:34:37.060Z,3.87
2019-02-08T13:37:11.115Z,4.00
2019-02-08T13:39:42.728Z,2.90
2019-02-08T13:42:14.317Z,4.40
2019-02-08T13:44:49.660Z,3.13
2019-02-08T13:47:21.359Z,13.10
2019-02-08T13:49:53.184Z,6.62
2019-02-08T13:52:26.046Z,2.60
2019-02-08T13:54:57.875Z,4.63
2019-02-08T13:57:29.450Z,5.43
2019-02-08T14:00:02.882Z,4.27
2019-02-08T14:02:34.442Z,4.57
2019-02-08T14:05:10.372Z,4.23
2019-02-08T14:07:42.590Z,4.85
2019-02-08T14:10:16.611Z,3.23
2019-02-08T14:12:48.188Z,6.13
2019-02-08T14:15:21.216Z,4.20
2019-02-08T14:17:53.027Z,3.20
2019-02-08T14:20:25.524Z,2.73
2019-02-08T14:22:57.347Z,3.50
2019-02-08T14:25:28.993Z,4.83
2019-02-08T14:28:00.569Z,2.40
2019-02-08T14:30:36.692Z,6.33
2019-02-08T14:33:11.504Z,4.60
2019-02-08T14:35:45.934Z,3.50
2019-02-08T14:38:22.818Z,3.00
2019-02-08T14:40:54.399Z,5.17
2019-02-08T14:43:25.987Z,2.70
2019-02-08T14:45:57.638Z,8.63
2019-02-08T14:48:29.530Z,5.33
2019-02-08T14:51:01.121Z,3.70
2019-02-08T14:53:32.751Z,4.27
2019-02-08T14:56:04.342Z,2.80
2019-02-08T14:58:35.959Z,4.60
2019-02-08T15:01:07.550Z,4.10
2019-02-08T15:03:41.348Z,4.93
2019-02-08T15:06:12.977Z,3.67
2019-02-08T15:08:44.651Z,5.17
2019-02-08T15:11:16.239Z,3.17
2019-02-08T15:13:47.828Z,3.00
2019-02-08T15:16:19.519Z,4.33
2019-02-08T15:18:51.106Z,7.87
2019-02-08T15:21:22.703Z,7.40
2019-02-08T15:23:54.270Z,6.40
2019-02-08T15:26:25.916Z,6.27
2019-02-08T15:28:57.515Z,3.80
2019-02-08T15:31:29.191Z,3.70
2019-02-08T15:34:00.740Z,6.00
2019-02-08T15:36:33.436Z,16.30
2019-02-08T15:39:08.976Z,6.27
2019-02-08T15:41:40.658Z,5.17
2019-02-08T15:44:12.247Z,4.10
2019-02-08T15:46:43.809Z,5.27
2019-02-08T15:49:15.701Z,2.87
2019-02-08T15:51:47.443Z,4.57
2019-02-08T15:54:19.133Z,4.60
2019-02-08T15:56:52.057Z,9.57
2019-02-08T15:59:23.640Z,5.33
2019-02-08T16:01:55.178Z,4.83
2019-02-08T16:04:26.884Z,5.60
2019-02-08T16:06:58.424Z,3.73
2019-02-08T16:09:30.029Z,3.43
2019-02-08T16:12:01.731Z,6.90
2019-02-08T16:14:33.273Z,7.17
2019-02-08T16:17:05.073Z,6.23
2019-02-08T16:19:36.731Z,5.53
2019-02-08T16:22:08.315Z,6.20
2019-02-08T16:24:42.933Z,5.53
2019-02-08T16:27:14.577Z,5.90
2019-02-08T16:29:46.165Z,6.80
2019-02-08T16:32:17.734Z,7.47
2019-02-08T16:34:50.259Z,6.30
2019-02-08T16:37:21.927Z,10.20
2019-02-08T16:39:53.555Z,5.63
2019-02-08T16:42:25.227Z,6.30
2019-02-08T16:44:58.407Z,7.13
2019-02-08T16:47:30.005Z,5.10
2019-02-08T16:50:04.333Z,7.87
2019-02-08T16:52:35.923Z,7.97
2019-02-08T16:55:10.826Z,9.30
2019-02-08T16:57:47.598Z,7.17
2019-02-08T17:00:20.107Z,13.03
2019-02-08T17:02:53.288Z,7.00
2019-02-08T17:05:25.917Z,8.47
2019-02-08T17:07:57.505Z,9.07
2019-02-08T17:10:29.488Z,9.80
2019-02-08T17:13:01.051Z,8.33
2019-02-08T17:15:33.421Z,5.30
2019-02-08T17:18:05.432Z,7.03
2019-02-08T17:20:41.628Z,11.00
2019-02-08T17:23:14.141Z,9.63
2019-02-08T17:25:45.717Z,12.50
2019-02-08T17:28:23.631Z,8.93
2019-02-08T17:30:55.328Z,11.07
2019-02-08T17:33:26.932Z,9.23
2019-02-08T17:35:58.513Z,9.57
2019-02-08T17:38:30.087Z,10.50
2019-02-08T17:41:01.647Z,9.80
2019-02-08T17:43:34.220Z,7.63
2019-02-08T17:46:06.823Z,7.10
2019-02-08T17:48:38.435Z,6.87
2019-02-08T17:51:10.129Z,7.07
2019-02-08T17:53:41.865Z,7.40
2019-02-08T17:56:13.447Z,6.60
2019-02-08T17:58:45.211Z,5.27
2019-02-08T18:01:16.804Z,5.67
2019-02-08T18:03:48.400Z,7.00
2019-02-08T18:06:19.980Z,5.10
2019-02-08T18:08:51.603Z,6.83
2019-02-08T18:11:24.972Z,6.30
2019-02-08T18:13:56.601Z,7.27
2019-02-08T18:16:28.198Z,12.10
2019-02-08T18:18:59.977Z,6.80
2019-02-08T18:21:31.625Z,9.30
2019-02-08T18:24:04.344Z,6.53
2019-02-08T18:26:35.984Z,10.83
2019-02-08T18:29:07.590Z,12.27
2019-02-08T18:31:39.187Z,10.33
2019-02-08T18:34:10.835Z,9.77
2019-02-08T18:36:42.575Z,17.10
2019-02-08T18:39:14.146Z,16.30
2019-02-08T18:41:45.799Z,21.13
2019-02-08T18:44:17.388Z,16.63
2019-02-08T18:46:48.957Z,13.87
2019-02-08T18:49:20.572Z,14.50
2019-02-08T18:51:52.183Z,18.33
2019-02-08T18:54:23.796Z,15.10
2019-02-08T18:56:55.432Z,12.13
2019-02-08T18:59:27.074Z,10.57
2019-02-08T19:01:58.664Z,14.23
2019-02-08T19:04:30.257Z,11.57
2019-02-08T19:07:01.818Z,14.53
2019-02-08T19:09:33.440Z,10.23
2019-02-08T19:12:05.107Z,25.80
2019-02-08T19:14:36.767Z,13.63
2019-02-08T19:17:08.370Z,27.10
2019-02-08T19:19:39.987Z,28.80
2019-02-08T19:22:11.656Z,12.03
2019-02-08T19:24:44.793Z,8.73
2019-02-08T19:27:19.665Z,8.83
2019-02-08T19:29:52.516Z,9.97
2019-02-08T19:32:24.121Z,14.80
2019-02-08T19:34:55.750Z,13.30
2019-02-08T19:37:27.348Z,11.50
2019-02-08T19:40:48.378Z,9.97
2019-02-08T19:43:20.290Z,7.37
2019-02-08T19:45:51.895Z,7.13
2019-02-08T19:48:23.483Z,7.87
2019-02-08T19:50:55.156Z,6.43
2019-02-08T19:53:26.738Z,7.77
2019-02-08T19:55:58.386Z,6.67
2019-02-08T19:58:34.477Z,6.83
2019-02-08T20:01:05.280Z,6.27
2019-02-08T20:03:41.236Z,5.73
2019-02-08T20:06:12.942Z,7.70
2019-02-08T20:08:44.533Z,5.40
2019-02-08T20:11:16.148Z,8.47
2019-02-08T20:13:49.158Z,6.00
2019-02-08T20:16:20.873Z,6.83
2019-02-08T20:18:52.497Z,5.87
2019-02-08T20:21:24.226Z,4.73
2019-02-08T20:23:55.826Z,5.10
2019-02-08T20:26:27.651Z,6.40
2019-02-08T20:28:59.228Z,8.07
2019-02-08T20:31:34.584Z,5.90
2019-02-08T20:34:06.295Z,5.17
2019-02-08T20:36:37.926Z,9.83
2019-02-08T20:39:11.845Z,6.07
2019-02-08T20:41:43.470Z,6.53
2019-02-08T20:44:15.089Z,7.80
2019-02-08T20:46:49.282Z,15.40
2019-02-08T20:49:20.955Z,21.83
2019-02-08T20:51:52.840Z,21.03
2019-02-08T20:54:26.460Z,21.50
2019-02-08T20:57:01.207Z,20.07
2019-02-08T20:59:34.670Z,20.30
2019-02-08T21:02:06.726Z,20.33
2019-02-08T21:04:38.327Z,21.90
2019-02-08T21:07:09.926Z,23.67
2019-02-08T21:09:41.553Z,21.33
2019-02-08T21:12:13.271Z,21.30
2019-02-08T21:14:44.838Z,20.20
2019-02-08T21:17:16.564Z,20.37
2019-02-08T21:19:48.202Z,17.20
2019-02-08T21:22:19.815Z,21.43
2019-02-08T21:24:52.937Z,21.43
2019-02-08T21:27:25.619Z,21.90
2019-02-08T21:29:57.202Z,22.10
2019-02-08T21:32:28.806Z,19.87
2019-02-08T21:35:00.662Z,19.57
2019-02-08T21:37:32.394Z,18.70
2019-02-08T21:40:04.985Z,19.13
2019-02-08T21:42:37.698Z,20.27
2019-02-08T21:45:15.186Z,21.77
2019-02-08T21:47:47.121Z,21.27
2019-02-08T21:50:19.546Z,22.60
2019-02-08T21:52:51.167Z,25.83
2019-02-08T21:55:24.449Z,28.03
2019-02-08T21:57:56.043Z,26.17
2019-02-08T22:00:30.333Z,23.43
2019-02-08T22:03:03.529Z,20.33
2019-02-08T22:05:40.664Z,18.98
2019-02-08T22:08:12.557Z,19.63
2019-02-08T22:10:47.654Z,17.85
2019-02-08T22:13:19.269Z,22.30
2019-02-08T22:15:50.969Z,24.23
2019-02-08T22:18:22.661Z,21.73
2019-02-08T22:20:54.245Z,19.43
2019-02-08T22:23:25.834Z,23.97
2019-02-08T22:25:57.419Z,25.67
2019-02-08T22:28:29.027Z,22.27
2019-02-08T22:31:00.911Z,24.80
2019-02-08T22:33:32.818Z,18.00
2019-02-08T22:36:04.797Z,24.75
2019-02-08T22:38:36.541Z,20.57
2019-02-08T22:41:08.133Z,19.47
2019-02-08T22:43:39.764Z,26.77
2019-02-08T22:46:11.431Z,23.27
2019-02-08T22:48:43.046Z,23.73
2019-02-08T22:51:14.898Z,19.67
2019-02-08T22:56:29.742Z,20.53
2019-02-08T22:59:01.330Z,19.77
2019-02-08T23:01:43.117Z,17.57
2019-02-08T23:04:14.705Z,20.17
2019-02-08T23:06:46.567Z,18.85
2019-02-08T23:09:23.936Z,15.90
2019-02-08T23:11:55.776Z,18.23
2019-02-08T23:14:27.351Z,16.60
2019-02-08T23:16:59.171Z,16.32
2019-02-08T23:19:31.069Z,19.65
2019-02-08T23:22:04.412Z,16.00
2019-02-08T23:24:36.284Z,18.07
2019-02-08T23:27:08.167Z,18.35
2019-02-08T23:29:40.047Z,20.70
2019-02-08T23:32:11.927Z,17.12
2019-02-08T23:34:43.765Z,17.17
2019-02-08T23:37:15.617Z,17.42
2019-02-08T23:39:47.452Z,16.73
2019-02-08T23:42:19.303Z,16.50
2019-02-08T23:44:52.225Z,17.27
2019-02-08T23:47:24.106Z,16.23
2019-02-08T23:49:55.966Z,14.73
2019-02-08T23:52:27.823Z,20.75
2019-02-08T23:55:00.980Z,14.35
2019-02-08T23:57:32.865Z,20.60
